Time;durP1;ratioP1;P1;durP2;ratioP2;P2;SDS_P1;SDS_P2;PMS_P1;PMS_P2;Temp;Humidity;BMP_temperature;BMP_pressure;BME280_temperature;BME280_humidity;BME280_pressure;Samples;Min_cycle;Max_cycle;Signal;HPM_P1;HPM_P2
2022/02/15 00:00:22;;;;;;;92.20;14.00;;;9.10;91.40;;;;;;5021112;28;20026;-60
2022/02/15 00:02:48;;;;;;;90.68;13.82;;;9.10;91.40;;;;;;4987175;28;20041;-62
2022/02/15 00:05:13;;;;;;;81.40;13.32;;;9.20;91.40;;;;;;5033626;28;20092;-62
2022/02/15 00:07:39;;;;;;;74.18;13.85;;;9.10;91.40;;;;;;5023119;28;20033;-60
2022/02/15 00:10:05;;;;;;;63.05;11.85;;;9.10;91.40;;;;;;5024879;28;20474;-60
2022/02/15 00:12:31;;;;;;;80.18;13.38;;;9.10;91.40;;;;;;5024425;28;20021;-60
2022/02/15 00:14:56;;;;;;;67.70;12.40;;;9.10;91.40;;;;;;5014044;28;20071;-63
2022/02/15 00:17:22;;;;;;;72.15;12.23;;;9.10;91.40;;;;;;5027008;28;20032;-60
2022/02/15 00:19:47;;;;;;;65.93;13.15;;;9.10;91.30;;;;;;5023482;28;20033;-64
2022/02/15 00:22:13;;;;;;;73.22;11.98;;;9.10;91.30;;;;;;5024879;28;20087;-59
2022/02/15 00:24:39;;;;;;;72.65;14.10;;;9.10;91.30;;;;;;5013831;28;20029;-62
2022/02/15 00:27:04;;;;;;;60.63;12.13;;;9.10;91.50;;;;;;5020643;28;20547;-64
2022/02/15 00:29:30;;;;;;;57.40;10.82;;;9.10;91.60;;;;;;5017372;28;20060;-64
2022/02/15 00:31:55;;;;;;;62.80;11.30;;;9.10;91.50;;;;;;5022370;28;20130;-61
2022/02/15 00:34:21;;;;;;;85.85;13.55;;;9.10;91.50;;;;;;5023908;28;20051;-64
2022/02/15 00:36:47;;;;;;;55.03;12.07;;;9.10;91.50;;;;;;5023038;28;20087;-63
2022/02/15 00:39:12;;;;;;;67.35;12.07;;;9.00;91.70;;;;;;5025561;28;20410;-60
2022/02/15 00:41:38;;;;;;;62.28;12.30;;;9.00;91.70;;;;;;5024932;28;20116;-61
2022/02/15 00:44:03;;;;;;;63.55;12.20;;;9.00;91.70;;;;;;5029227;28;20105;-64
2022/02/15 00:46:29;;;;;;;58.00;11.85;;;9.00;91.90;;;;;;5009105;28;20034;-63
2022/02/15 00:48:54;;;;;;;55.72;11.45;;;9.00;91.80;;;;;;5013078;28;20658;-60
2022/02/15 00:51:20;;;;;;;58.08;13.25;;;9.00;91.90;;;;;;5026831;28;20071;-62
2022/02/15 00:53:45;;;;;;;65.10;13.23;;;9.00;91.70;;;;;;5025861;28;20025;-64
2022/02/15 00:56:11;;;;;;;58.58;13.68;;;9.00;91.80;;;;;;5027810;28;20116;-61
2022/02/15 00:58:36;;;;;;;47.72;12.57;;;9.00;91.80;;;;;;5021033;28;20029;-62
2022/02/15 01:01:02;;;;;;;60.65;13.07;;;8.90;91.80;;;;;;5023808;28;20108;-64
2022/02/15 01:03:27;;;;;;;52.80;12.18;;;8.90;91.80;;;;;;5016023;28;20072;-63
2022/02/15 01:05:53;;;;;;;39.72;11.20;;;8.90;91.80;;;;;;5026041;28;20104;-64
2022/02/15 01:08:18;;;;;;;60.63;12.77;;;8.90;91.90;;;;;;5023224;28;20049;-60
2022/02/15 01:10:46;;;;;;;48.08;11.57;;;8.90;91.90;;;;;;5021178;28;20041;-60
2022/02/15 01:13:12;;;;;;;42.00;11.35;;;8.90;91.80;;;;;;5027442;28;20055;-62
2022/02/15 01:15:38;;;;;;;40.92;11.30;;;8.90;91.80;;;;;;5027003;28;20485;-60
2022/02/15 01:18:03;;;;;;;39.45;11.25;;;8.90;91.90;;;;;;5024198;28;20017;-65
2022/02/15 01:20:29;;;;;;;43.92;11.00;;;8.90;91.80;;;;;;5027239;28;20059;-63
2022/02/15 01:22:55;;;;;;;60.97;12.20;;;8.90;91.70;;;;;;5022983;28;20066;-61
2022/02/15 01:25:21;;;;;;;37.38;10.52;;;8.90;91.70;;;;;;5028423;28;20013;-59
2022/02/15 01:27:46;;;;;;;41.58;11.10;;;8.90;91.70;;;;;;5017390;28;20036;-62
2022/02/15 01:30:12;;;;;;;39.20;11.60;;;8.90;91.80;;;;;;5022501;28;20041;-61
2022/02/15 01:32:37;;;;;;;43.95;11.05;;;8.90;91.80;;;;;;5028671;28;20082;-61
2022/02/15 01:35:04;;;;;;;59.28;11.63;;;8.90;91.80;;;;;;5021654;28;20048;-60
2022/02/15 01:37:29;;;;;;;52.83;11.40;;;8.80;91.80;;;;;;5019509;28;20161;-62
2022/02/15 01:39:55;;;;;;;46.58;12.88;;;8.90;91.90;;;;;;5022495;28;20021;-60
2022/02/15 01:42:21;;;;;;;46.15;12.57;;;8.80;91.90;;;;;;5022683;28;20112;-59
2022/02/15 01:44:47;;;;;;;35.72;12.15;;;8.80;91.80;;;;;;5018738;28;20314;-64
2022/02/15 01:47:26;;;;;;;43.90;12.40;;;8.80;91.90;;;;;;5019055;28;20517;-61
2022/02/15 01:49:52;;;;;;;42.72;12.55;;;8.80;91.90;;;;;;5023544;28;20057;-62
2022/02/15 01:52:20;;;;;;;50.47;11.15;;;8.80;91.90;;;;;;5021905;28;20083;-61
2022/02/15 01:54:52;;;;;;;45.45;12.18;;;8.80;91.90;;;;;;5021882;28;20095;-63
2022/02/15 01:57:18;;;;;;;33.20;11.15;;;8.80;91.90;;;;;;5012383;28;20567;-60
2022/02/15 01:59:44;;;;;;;45.88;11.45;;;8.80;91.90;;;;;;5025258;28;20042;-61
2022/02/15 02:02:10;;;;;;;44.10;11.63;;;8.80;91.90;;;;;;5025904;28;20034;-62
2022/02/15 02:07:19;;;;;;;36.63;9.68;;;8.70;91.90;;;;;;5018388;28;20503;-62
2022/02/15 02:09:45;;;;;;;30.58;10.30;;;8.80;91.90;;;;;;5018615;28;20053;-62
2022/02/15 02:12:10;;;;;;;26.50;9.05;;;8.70;91.80;;;;;;5002651;28;20109;-64
2022/02/15 02:14:36;;;;;;;31.55;9.27;;;8.80;91.80;;;;;;5011728;28;20061;-63
2022/02/15 02:17:01;;;;;;;32.47;9.45;;;8.80;91.80;;;;;;5018875;28;20083;-63
2022/02/15 02:19:27;;;;;;;37.00;10.13;;;8.70;91.80;;;;;;5018214;28;20105;-62
2022/02/15 02:21:53;;;;;;;30.83;10.63;;;8.70;91.80;;;;;;5018388;28;20108;-60
2022/02/15 02:24:19;;;;;;;37.80;10.95;;;8.70;92.10;;;;;;4994528;28;20509;-63
2022/02/15 02:26:44;;;;;;;28.20;10.73;;;8.80;92.40;;;;;;5018969;28;20101;-59
2022/02/15 02:29:10;;;;;;;26.55;9.30;;;8.80;92.50;;;;;;5000346;28;20073;-63
2022/02/15 02:31:35;;;;;;;26.05;9.52;;;8.80;92.60;;;;;;5022228;28;20485;-60
2022/02/15 02:34:01;;;;;;;30.40;9.88;;;8.70;92.30;;;;;;5022689;28;20363;-59
2022/02/15 02:36:26;;;;;;;31.15;10.57;;;8.80;92.20;;;;;;5007634;28;20464;-62
2022/02/15 02:38:52;;;;;;;21.55;9.30;;;8.70;92.20;;;;;;5020847;28;20145;-64
2022/02/15 02:41:18;;;;;;;29.60;10.52;;;8.70;92.20;;;;;;5019154;28;20049;-62
2022/02/15 02:43:43;;;;;;;30.73;11.63;;;8.70;92.30;;;;;;5025247;28;20488;-62
2022/02/15 02:46:09;;;;;;;27.30;10.85;;;8.70;92.50;;;;;;5025782;28;20034;-61
2022/02/15 02:48:34;;;;;;;35.60;13.32;;;8.70;92.50;;;;;;5026014;28;20025;-62
2022/02/15 02:51:00;;;;;;;32.53;12.35;;;8.70;92.60;;;;;;5026447;28;20022;-63
2022/02/15 02:53:25;;;;;;;30.55;11.80;;;8.70;92.60;;;;;;5023502;28;20073;-60
2022/02/15 02:55:51;;;;;;;40.17;12.40;;;8.70;92.50;;;;;;5027388;28;20033;-61
2022/02/15 02:58:16;;;;;;;32.53;11.70;;;8.80;92.50;;;;;;5029945;28;20117;-61
2022/02/15 03:00:42;;;;;;;32.13;10.82;;;8.70;92.40;;;;;;5020762;28;20056;-65
2022/02/15 03:03:07;;;;;;;35.13;11.38;;;8.70;92.50;;;;;;5022414;28;20018;-62
2022/02/15 03:05:34;;;;;;;24.98;10.73;;;8.70;92.60;;;;;;5028825;28;20045;-60
2022/02/15 03:07:59;;;;;;;27.90;11.43;;;8.70;92.60;;;;;;5023964;28;20018;-63
2022/02/15 03:10:25;;;;;;;29.48;11.27;;;8.70;92.60;;;;;;5026925;28;20040;-62
2022/02/15 03:12:50;;;;;;;23.58;10.43;;;8.70;92.60;;;;;;5023987;28;20064;-61
2022/02/15 03:15:16;;;;;;;28.52;11.20;;;8.70;92.50;;;;;;5027113;28;20075;-60
2022/02/15 03:17:41;;;;;;;25.17;10.80;;;8.70;92.40;;;;;;5025556;28;20033;-59
2022/02/15 03:20:09;;;;;;;27.92;11.25;;;8.70;92.40;;;;;;5027637;28;20033;-63
2022/02/15 03:22:34;;;;;;;30.55;10.55;;;8.70;92.40;;;;;;5026954;28;20036;-62
2022/02/15 03:25:00;;;;;;;22.20;9.63;;;8.70;92.40;;;;;;5030587;28;20382;-62
2022/02/15 03:27:25;;;;;;;26.92;10.20;;;8.70;92.40;;;;;;5028481;28;20033;-61
2022/02/15 03:29:51;;;;;;;29.15;11.18;;;8.70;92.40;;;;;;5024439;28;20053;-64
2022/02/15 03:32:16;;;;;;;31.45;10.88;;;8.70;92.40;;;;;;5025365;28;20181;-60
2022/02/15 03:34:42;;;;;;;32.15;10.95;;;8.70;92.40;;;;;;5028500;28;20017;-63
2022/02/15 03:37:08;;;;;;;28.45;9.30;;;8.70;92.40;;;;;;5025787;28;20132;-61
2022/02/15 03:39:35;;;;;;;31.25;10.93;;;8.60;92.40;;;;;;4991079;28;20041;-64
2022/02/15 03:44:46;;;;;;;28.75;10.52;;;8.70;92.30;;;;;;5021842;28;20036;-61
2022/02/15 03:47:11;;;;;;;30.80;11.32;;;8.70;92.30;;;;;;5020883;28;20037;-64
2022/02/15 03:49:37;;;;;;;23.30;10.68;;;8.70;92.30;;;;;;5021230;28;20026;-62
2022/02/15 03:52:03;;;;;;;24.23;10.15;;;8.70;92.30;;;;;;5009750;28;20030;-61
2022/02/15 03:54:28;;;;;;;23.27;11.30;;;8.70;92.30;;;;;;5021075;28;20443;-64
2022/02/15 03:56:54;;;;;;;21.75;11.48;;;8.70;92.30;;;;;;5018447;28;20049;-61
2022/02/15 03:59:20;;;;;;;24.95;10.32;;;8.70;92.30;;;;;;5022667;28;20029;-63
2022/02/15 04:01:45;;;;;;;21.25;10.13;;;8.70;92.30;;;;;;5022793;28;20054;-64
2022/02/15 04:04:11;;;;;;;25.45;9.70;;;8.60;92.30;;;;;;5027487;28;20481;-61
2022/02/15 04:06:37;;;;;;;23.65;10.02;;;8.60;92.30;;;;;;5032267;28;20076;-64
2022/02/15 04:09:02;;;;;;;25.13;10.35;;;8.70;92.30;;;;;;5022308;28;20037;-62
2022/02/15 04:11:28;;;;;;;27.50;9.68;;;8.60;92.30;;;;;;5024680;28;20037;-61
2022/02/15 04:13:53;;;;;;;23.40;10.27;;;8.60;92.20;;;;;;5024290;28;20080;-63
2022/02/15 04:16:19;;;;;;;20.63;9.65;;;8.60;92.30;;;;;;4998241;28;20022;-61
2022/02/15 04:18:47;;;;;;;24.23;9.75;;;8.70;92.40;;;;;;5034317;28;20029;-62
2022/02/15 04:21:13;;;;;;;23.30;9.52;;;8.60;92.30;;;;;;5008974;28;20116;-62
2022/02/15 04:23:39;;;;;;;20.48;10.45;;;8.60;92.30;;;;;;5026031;28;20075;-59
2022/02/15 04:26:05;;;;;;;20.23;9.38;;;8.60;92.30;;;;;;4987355;28;20030;-64
2022/02/15 04:28:30;;;;;;;22.70;9.40;;;8.60;92.30;;;;;;5026907;28;20110;-64
2022/02/15 04:30:56;;;;;;;23.90;9.25;;;8.60;92.30;;;;;;5024971;28;20076;-61
2022/02/15 04:33:22;;;;;;;24.42;9.13;;;8.60;92.30;;;;;;5010398;28;20077;-62
2022/02/15 04:35:47;;;;;;;19.77;8.35;;;8.60;92.30;;;;;;5018252;28;20060;-64
2022/02/15 04:38:13;;;;;;;19.45;9.07;;;8.60;92.30;;;;;;5024739;28;20120;-63
2022/02/15 04:40:38;;;;;;;27.10;8.98;;;8.60;92.20;;;;;;5027673;28;20562;-63
2022/02/15 04:43:04;;;;;;;23.95;8.50;;;8.60;92.30;;;;;;5019516;28;20438;-63
2022/02/15 04:45:29;;;;;;;21.45;10.23;;;8.60;92.30;;;;;;5021211;28;20049;-62
2022/02/15 04:47:55;;;;;;;19.23;9.10;;;8.60;92.30;;;;;;5023768;28;20418;-64
2022/02/15 04:50:20;;;;;;;17.60;9.43;;;8.60;92.30;;;;;;5024153;28;20068;-62
2022/02/15 04:52:46;;;;;;;20.40;9.13;;;8.60;92.30;;;;;;5022169;28;20076;-61
2022/02/15 04:55:11;;;;;;;19.25;9.82;;;8.60;92.30;;;;;;5029223;28;20052;-65
2022/02/15 04:57:37;;;;;;;15.52;8.73;;;8.60;92.30;;;;;;5025525;28;20097;-61
2022/02/15 05:00:05;;;;;;;17.83;8.02;;;8.60;92.30;;;;;;5024544;28;20025;-60
2022/02/15 05:02:30;;;;;;;20.38;9.50;;;8.70;92.30;;;;;;5021778;28;20042;-59
2022/02/15 05:04:58;;;;;;;14.98;8.32;;;8.50;92.30;;;;;;5026990;28;20021;-59
2022/02/15 05:07:24;;;;;;;17.33;8.27;;;8.50;92.30;;;;;;5030827;28;20075;-64
2022/02/15 05:09:49;;;;;;;17.27;8.38;;;8.50;92.30;;;;;;5024679;28;20112;-62
2022/02/15 05:12:15;;;;;;;20.52;7.93;;;8.50;92.30;;;;;;5024535;28;20133;-62
2022/02/15 05:14:41;;;;;;;16.33;8.50;;;8.40;92.30;;;;;;5026653;28;20097;-59
2022/02/15 05:17:06;;;;;;;19.00;8.70;;;8.50;92.30;;;;;;5025727;28;20129;-62
2022/02/15 05:19:32;;;;;;;16.20;7.90;;;8.50;92.40;;;;;;5000106;28;20018;-61
2022/02/15 05:21:58;;;;;;;17.15;7.93;;;8.40;92.30;;;;;;5023043;28;20036;-61
2022/02/15 05:24:24;;;;;;;11.07;7.45;;;8.50;92.30;;;;;;5030049;28;20029;-59
2022/02/15 05:26:49;;;;;;;16.33;8.27;;;8.50;92.30;;;;;;5030203;28;20149;-62
2022/02/15 05:29:15;;;;;;;15.23;8.23;;;8.50;92.30;;;;;;5032053;28;20367;-59
2022/02/15 05:31:40;;;;;;;16.85;8.07;;;8.40;92.60;;;;;;5026714;28;20114;-62
2022/02/15 05:34:06;;;;;;;16.65;7.10;;;8.40;92.30;;;;;;5028615;28;20037;-62
2022/02/15 05:36:33;;;;;;;32.90;8.73;;;8.40;92.30;;;;;;5030537;28;20036;-63
2022/02/15 05:38:59;;;;;;;25.27;9.00;;;8.40;92.40;;;;;;5025875;28;20025;-64
2022/02/15 05:41:24;;;;;;;17.25;7.38;;;8.40;92.30;;;;;;5014084;28;20056;-63
2022/02/15 05:43:50;;;;;;;21.33;8.75;;;8.40;92.30;;;;;;5030688;28;20120;-61
2022/02/15 05:46:15;;;;;;;17.25;7.22;;;8.40;92.30;;;;;;5024882;28;20923;-62
2022/02/15 05:48:41;;;;;;;18.70;8.40;;;8.40;92.30;;;;;;5039097;28;20025;-61
2022/02/15 05:51:06;;;;;;;29.63;8.65;;;8.40;92.30;;;;;;5032232;28;20048;-64
2022/02/15 05:53:32;;;;;;;17.02;8.43;;;8.40;92.30;;;;;;5025985;28;20366;-63
2022/02/15 05:55:59;;;;;;;21.42;9.02;;;8.40;92.30;;;;;;5031153;28;20045;-63
2022/02/15 05:58:25;;;;;;;25.25;8.77;;;8.40;92.30;;;;;;5031221;28;20017;-62
2022/02/15 06:00:51;;;;;;;17.42;7.78;;;8.40;92.30;;;;;;5007177;28;20020;-59
2022/02/15 06:06:01;;;;;;;19.92;8.05;;;8.40;92.30;;;;;;5028474;28;20284;-62
2022/02/15 06:08:26;;;;;;;28.55;8.13;;;8.40;92.30;;;;;;5023607;28;20558;-61
2022/02/15 06:10:52;;;;;;;27.25;9.00;;;8.40;92.30;;;;;;5027529;28;20037;-60
2022/02/15 06:13:17;;;;;;;20.13;8.07;;;8.40;92.40;;;;;;5026591;28;20072;-61
2022/02/15 06:15:43;;;;;;;27.50;8.52;;;8.40;92.50;;;;;;5020972;28;20057;-61
2022/02/15 06:18:08;;;;;;;18.00;8.38;;;8.40;92.80;;;;;;5024381;28;20120;-61
2022/02/15 06:20:34;;;;;;;20.35;7.85;;;8.40;92.50;;;;;;5024980;28;20133;-62
2022/02/15 06:22:59;;;;;;;17.90;7.88;;;8.40;92.50;;;;;;5018860;28;20065;-62
2022/02/15 06:25:25;;;;;;;16.80;7.47;;;8.30;92.60;;;;;;5020007;28;20108;-60
2022/02/15 06:27:50;;;;;;;13.98;7.88;;;8.40;92.60;;;;;;5028442;28;20076;-60
2022/02/15 06:30:16;;;;;;;19.88;7.70;;;8.30;92.60;;;;;;5025331;28;20141;-60
2022/02/15 06:32:41;;;;;;;19.50;8.32;;;8.30;92.60;;;;;;5022326;28;20217;-61
2022/02/15 06:35:07;;;;;;;12.57;7.43;;;8.30;92.60;;;;;;5017572;28;20038;-64
2022/02/15 06:37:34;;;;;;;15.18;7.10;;;8.30;92.60;;;;;;5034080;28;20077;-64
2022/02/15 06:39:59;;;;;;;18.27;7.60;;;8.30;92.60;;;;;;5030448;28;20033;-62
2022/02/15 06:42:25;;;;;;;10.85;7.18;;;8.30;92.70;;;;;;5018197;28;20029;-60
2022/02/15 06:44:51;;;;;;;17.90;8.15;;;8.30;92.60;;;;;;5016196;28;20132;-63
2022/02/15 06:47:16;;;;;;;19.25;8.25;;;8.30;92.70;;;;;;5018502;28;20046;-60
2022/02/15 06:49:42;;;;;;;15.38;7.32;;;8.30;92.70;;;;;;5025179;28;20041;-63
2022/02/15 06:52:07;;;;;;;14.98;7.93;;;8.30;92.70;;;;;;5027379;28;20122;-61
2022/02/15 06:54:33;;;;;;;14.90;7.63;;;8.30;92.80;;;;;;5022346;28;20180;-61
2022/02/15 06:56:58;;;;;;;17.05;7.55;;;8.30;92.80;;;;;;5015646;28;20134;-62
2022/02/15 06:59:24;;;;;;;16.55;7.65;;;8.30;92.80;;;;;;5019224;28;20049;-59
2022/02/15 07:01:50;;;;;;;17.75;7.60;;;8.30;92.80;;;;;;5018314;28;20075;-63
2022/02/15 07:04:15;;;;;;;12.40;7.70;;;8.30;92.80;;;;;;5024801;28;20075;-63
2022/02/15 07:06:41;;;;;;;19.48;7.47;;;8.30;92.80;;;;;;5017825;28;20029;-64
2022/02/15 07:09:07;;;;;;;12.13;7.63;;;8.30;92.80;;;;;;5000923;28;20038;-62
2022/02/15 07:11:32;;;;;;;11.98;6.93;;;8.20;92.80;;;;;;5013807;28;20022;-60
2022/02/15 07:13:58;;;;;;;15.23;8.40;;;8.20;92.80;;;;;;5018356;28;20375;-63
2022/02/15 07:16:23;;;;;;;12.88;7.05;;;8.20;92.80;;;;;;5015979;28;20041;-61
2022/02/15 07:18:49;;;;;;;11.20;6.70;;;8.20;92.80;;;;;;5020720;28;20662;-59
2022/02/15 07:21:15;;;;;;;17.33;7.95;;;8.20;92.80;;;;;;5018915;28;20037;-61
2022/02/15 07:23:40;;;;;;;13.05;8.02;;;8.20;92.80;;;;;;5024446;28;20022;-60
2022/02/15 07:26:06;;;;;;;12.38;7.20;;;8.20;92.80;;;;;;5022141;28;20030;-63
2022/02/15 07:28:31;;;;;;;14.57;7.50;;;8.20;92.80;;;;;;5025716;28;20373;-60
2022/02/15 07:30:57;;;;;;;9.23;6.60;;;8.30;92.80;;;;;;5014428;28;20053;-59
2022/02/15 07:33:22;;;;;;;11.85;7.47;;;8.30;92.80;;;;;;5014137;28;20132;-64
2022/02/15 07:35:48;;;;;;;14.43;7.60;;;8.20;92.90;;;;;;5018600;28;20042;-61
2022/02/15 07:38:14;;;;;;;11.50;7.85;;;8.30;92.90;;;;;;5021365;28;20571;-64
2022/02/15 07:40:39;;;;;;;13.18;7.40;;;8.20;92.80;;;;;;5019902;28;20037;-60
2022/02/15 07:43:05;;;;;;;13.68;7.05;;;8.20;92.80;;;;;;5019345;28;20037;-63
2022/02/15 07:45:30;;;;;;;11.82;6.45;;;8.20;92.80;;;;;;5021488;28;20045;-62
2022/02/15 07:47:56;;;;;;;9.88;7.13;;;8.20;92.80;;;;;;5015799;28;20406;-62
2022/02/15 07:50:22;;;;;;;16.48;7.78;;;8.20;92.80;;;;;;5018225;28;20063;-62
2022/02/15 07:52:50;;;;;;;14.48;7.30;;;8.30;92.80;;;;;;5027670;28;20159;-61
2022/02/15 07:55:16;;;;;;;10.80;7.25;;;8.30;92.80;;;;;;5019934;28;20440;-64
2022/02/15 07:57:42;;;;;;;8.18;6.55;;;8.30;92.80;;;;;;5022078;28;20054;-59
2022/02/15 08:00:08;;;;;;;14.00;6.95;;;8.20;92.70;;;;;;5012074;28;20044;-61
2022/02/15 08:02:33;;;;;;;14.95;7.15;;;8.30;92.80;;;;;;5015114;28;20477;-62
2022/02/15 08:04:59;;;;;;;10.93;7.40;;;8.30;92.70;;;;;;5017946;28;20284;-64
2022/02/15 08:07:25;;;;;;;10.35;6.05;;;8.30;92.80;;;;;;5018428;28;20025;-60
2022/02/15 08:09:50;;;;;;;12.77;6.78;;;8.30;92.80;;;;;;5025377;28;20028;-62
2022/02/15 08:12:19;;;;;;;12.52;6.78;;;8.30;92.80;;;;;;5022558;28;20544;-61
2022/02/15 08:14:45;;;;;;;14.48;6.32;;;8.30;92.80;;;;;;5028005;28;20611;-61
2022/02/15 08:17:11;;;;;;;10.18;6.50;;;8.30;92.80;;;;;;5006555;28;20028;-64
2022/02/15 08:19:36;;;;;;;8.88;7.07;;;8.30;92.70;;;;;;5017957;28;20038;-60
2022/02/15 08:22:02;;;;;;;12.27;6.50;;;8.30;92.80;;;;;;5027116;28;20424;-63
2022/02/15 08:24:28;;;;;;;11.68;6.30;;;8.30;92.80;;;;;;5021363;28;20338;-60
2022/02/15 08:26:54;;;;;;;6.88;6.13;;;8.30;92.70;;;;;;5023083;28;20030;-61
2022/02/15 08:29:19;;;;;;;11.18;5.85;;;8.40;92.70;;;;;;5023128;28;20048;-59
2022/02/15 08:31:45;;;;;;;11.15;6.22;;;8.30;92.70;;;;;;5025662;28;20029;-62
2022/02/15 08:34:10;;;;;;;16.55;7.20;;;8.30;92.80;;;;;;5023051;28;20061;-59
2022/02/15 08:36:36;;;;;;;14.00;6.95;;;8.40;92.80;;;;;;5019312;28;20029;-62
2022/02/15 08:39:02;;;;;;;16.95;7.15;;;8.40;93.00;;;;;;5019222;28;20049;-62
2022/02/15 08:41:28;;;;;;;18.48;7.28;;;8.50;93.00;;;;;;5013337;28;20034;-62
2022/02/15 08:43:53;;;;;;;23.75;6.53;;;8.40;92.90;;;;;;5016769;28;20157;-61
2022/02/15 08:46:19;;;;;;;11.15;5.65;;;8.40;92.90;;;;;;5020547;28;20036;-61
2022/02/15 08:48:44;;;;;;;13.98;5.53;;;8.40;92.80;;;;;;5020861;28;20045;-60
2022/02/15 08:51:10;;;;;;;16.27;5.90;;;8.40;92.70;;;;;;5019533;28;20076;-60
2022/02/15 08:53:36;;;;;;;16.25;5.53;;;8.40;92.80;;;;;;5020982;28;20053;-63
2022/02/15 08:56:01;;;;;;;21.95;5.50;;;8.40;92.70;;;;;;5021267;28;20044;-64
2022/02/15 08:58:27;;;;;;;20.35;6.15;;;8.40;92.80;;;;;;5024034;28;20549;-61
2022/02/15 09:00:52;;;;;;;15.85;5.90;;;8.40;92.80;;;;;;5013482;28;20082;-64
2022/02/15 09:03:18;;;;;;;18.40;6.82;;;8.40;92.80;;;;;;5006636;28;20030;-61
2022/02/15 09:05:44;;;;;;;14.07;5.82;;;8.40;92.90;;;;;;5022243;28;20151;-63
2022/02/15 09:08:09;;;;;;;18.55;5.60;;;8.50;92.90;;;;;;5015756;28;20288;-60
2022/02/15 09:10:37;;;;;;;19.13;5.32;;;8.50;92.90;;;;;;5026446;28;20457;-61
2022/02/15 09:13:03;;;;;;;31.17;6.30;;;8.50;92.90;;;;;;5019458;28;20674;-63
2022/02/15 09:15:30;;;;;;;22.92;5.93;;;8.50;92.90;;;;;;5020784;28;20033;-63
2022/02/15 09:17:56;;;;;;;19.83;5.10;;;8.50;93.10;;;;;;5019426;28;20042;-60
2022/02/15 09:20:21;;;;;;;19.15;5.40;;;8.50;93.00;;;;;;5022195;28;20056;-63
2022/02/15 09:22:48;;;;;;;21.48;5.47;;;8.50;93.00;;;;;;5013793;28;20417;-63
2022/02/15 09:25:13;;;;;;;25.13;5.63;;;8.60;92.90;;;;;;5017659;28;20430;-61
2022/02/15 09:27:39;;;;;;;72.50;11.43;;;8.50;93.00;;;;;;5000859;28;20076;-61
2022/02/15 09:30:05;;;;;;;265.75;28.67;;;8.60;93.20;;;;;;5016486;28;20045;-63
2022/02/15 09:32:30;;;;;;;76.93;12.15;;;8.60;93.30;;;;;;5014628;28;20044;-65
2022/02/15 09:34:56;;;;;;;51.33;9.43;;;8.60;93.40;;;;;;5018520;28;20036;-62
2022/02/15 09:37:22;;;;;;;51.92;8.43;;;8.60;93.40;;;;;;5018456;28;20121;-65
2022/02/15 09:39:48;;;;;;;47.20;8.20;;;8.60;93.40;;;;;;5017066;28;20043;-63
2022/02/15 09:42:14;;;;;;;33.35;7.00;;;8.70;93.30;;;;;;4998587;28;20021;-64
2022/02/15 09:44:40;;;;;;;42.00;5.97;;;8.70;93.20;;;;;;5016847;28;20045;-64
2022/02/15 09:47:05;;;;;;;68.82;8.07;;;8.70;93.10;;;;;;5015505;28;20125;-63
2022/02/15 09:49:49;;;;;;;45.03;7.88;;;8.70;93.30;;;;;;5012150;28;20207;-63
2022/02/15 09:52:15;;;;;;;40.92;8.10;;;8.70;93.50;;;;;;5016524;28;20751;-60
2022/02/15 09:54:42;;;;;;;53.17;8.43;;;8.70;93.60;;;;;;5007598;28;20021;-62
2022/02/15 09:57:08;;;;;;;69.15;10.02;;;8.70;93.60;;;;;;5003183;28;20028;-63
2022/02/15 09:59:33;;;;;;;53.88;7.55;;;8.70;93.50;;;;;;5019866;28;20041;-62
2022/02/15 10:02:02;;;;;;;37.05;6.53;;;8.70;93.50;;;;;;5004673;28;20029;-61
2022/02/15 10:04:34;;;;;;;32.45;7.15;;;8.70;93.50;;;;;;5017009;28;20068;-60
2022/02/15 10:07:06;;;;;;;32.85;7.38;;;8.50;93.40;;;;;;5017245;28;20026;-64
2022/02/15 10:09:31;;;;;;;40.28;7.22;;;8.80;93.50;;;;;;5004700;28;20454;-60
2022/02/15 10:12:06;;;;;;;37.15;7.25;;;8.80;93.40;;;;;;5003583;28;20496;-62
2022/02/15 10:14:34;;;;;;;38.65;7.15;;;8.70;93.40;;;;;;5017378;28;20030;-60
2022/02/15 10:16:59;;;;;;;45.03;7.80;;;8.80;93.50;;;;;;5009381;28;20029;-60
2022/02/15 10:19:26;;;;;;;45.55;7.97;;;8.80;93.50;;;;;;5013192;28;20367;-62
2022/02/15 10:21:54;;;;;;;46.53;6.35;;;8.80;93.60;;;;;;5015710;28;20132;-63
2022/02/15 10:24:21;;;;;;;42.53;8.57;;;8.80;93.40;;;;;;4993083;28;20678;-64
2022/02/15 10:27:13;;;;;;;43.20;6.85;;;8.90;93.50;;;;;;5002444;28;20060;-62
2022/02/15 10:29:40;;;;;;;36.88;7.50;;;8.90;93.60;;;;;;5013705;28;20089;-64
2022/02/15 10:32:11;;;;;;;52.10;8.20;;;8.90;93.60;;;;;;4992354;28;20084;-62
2022/02/15 10:34:53;;;;;;;51.50;8.77;;;8.90;93.60;;;;;;5015690;28;20051;-62
2022/02/15 10:37:18;;;;;;;61.38;8.70;;;8.90;93.70;;;;;;5012950;28;20037;-61
2022/02/15 10:39:51;;;;;;;54.95;9.38;;;8.90;93.80;;;;;;5017769;28;20040;-60
2022/02/15 10:42:18;;;;;;;53.38;8.70;;;9.00;94.00;;;;;;5012285;28;20076;-60
2022/02/15 10:44:48;;;;;;;65.50;8.70;;;9.00;93.90;;;;;;5019394;28;20505;-60
2022/02/15 10:47:14;;;;;;;60.55;7.72;;;9.00;93.80;;;;;;5022138;28;20033;-62
2022/02/15 10:49:39;;;;;;;74.63;10.70;;;9.10;93.70;;;;;;5013800;28;20025;-62
2022/02/15 10:52:05;;;;;;;63.15;9.40;;;9.10;93.70;;;;;;5021688;28;20177;-60
2022/02/15 10:54:30;;;;;;;62.92;8.90;;;9.10;93.80;;;;;;5021026;28;20049;-61
2022/02/15 10:56:56;;;;;;;71.53;9.45;;;9.20;93.80;;;;;;5001883;28;20029;-60
2022/02/15 10:59:22;;;;;;;67.75;9.07;;;9.20;93.70;;;;;;5009182;28;20091;-60
2022/02/15 11:01:47;;;;;;;63.33;9.88;;;9.20;93.70;;;;;;5017238;28;20069;-60
2022/02/15 11:04:13;;;;;;;88.68;11.98;;;9.30;93.70;;;;;;5009862;28;20270;-62
2022/02/15 11:06:39;;;;;;;76.05;11.45;;;9.30;93.60;;;;;;5013988;28;20852;-59
2022/02/15 11:09:06;;;;;;;95.40;11.98;;;9.30;93.80;;;;;;5017137;28;20030;-62
2022/02/15 11:11:46;;;;;;;76.70;11.88;;;9.40;93.70;;;;;;5018502;28;20029;-59
2022/02/15 11:14:11;;;;;;;82.80;11.15;;;9.40;93.70;;;;;;5022586;28;20675;-59
2022/02/15 11:16:40;;;;;;;79.07;11.95;;;9.40;93.50;;;;;;5023056;28;20067;-60
2022/02/15 11:19:13;;;;;;;79.63;12.00;;;9.50;93.40;;;;;;5017863;28;20051;-61
2022/02/15 11:21:38;;;;;;;94.10;12.93;;;9.50;93.40;;;;;;5032615;28;20593;-61
2022/02/15 11:24:07;;;;;;;59.80;10.70;;;9.50;93.40;;;;;;5028757;28;20033;-60
2022/02/15 11:26:43;;;;;;;81.18;10.55;;;9.50;93.40;;;;;;5009563;28;20040;-60
2022/02/15 11:29:27;;;;;;;;;;;9.50;93.60;;;;;;5025534;28;20021;-60
2022/02/15 11:31:53;;;;;;;105.85;12.65;;;9.50;93.40;;;;;;5025078;28;20378;-61
2022/02/15 11:34:29;;;;;;;102.18;12.55;;;9.50;93.30;;;;;;5019596;28;20117;-60
2022/02/15 11:36:55;;;;;;;;;;;9.50;93.10;;;;;;5008674;28;20033;-61
2022/02/15 11:39:21;;;;;;;;;;;9.50;93.20;;;;;;5019325;28;19960;-62
2022/02/15 11:41:48;;;;;;;86.22;11.32;;;9.50;93.20;;;;;;5023805;28;19982;-61
2022/02/15 11:44:16;;;;;;;109.28;13.50;;;9.50;93.10;;;;;;5020996;28;20033;-60
2022/02/15 11:46:46;;;;;;;112.22;12.77;;;9.60;93.00;;;;;;5001449;28;20010;-60
2022/02/15 11:49:16;;;;;;;92.13;12.82;;;9.60;92.90;;;;;;5021439;28;20034;-61
2022/02/15 11:51:43;;;;;;;105.43;13.52;;;9.60;92.80;;;;;;5017251;28;20044;-60
2022/02/15 11:54:15;;;;;;;95.57;12.02;;;9.60;92.80;;;;;;5023363;28;20091;-59
2022/02/15 11:56:48;;;;;;;77.30;11.20;;;9.60;92.70;;;;;;5006979;28;20026;-60
2022/02/15 11:59:21;;;;;;;76.47;11.52;;;9.60;92.70;;;;;;5016271;28;20608;-62
2022/02/15 12:02:04;;;;;;;77.53;11.35;;;9.60;92.60;;;;;;5023048;28;20037;-62
2022/02/15 12:04:30;;;;;;;262.00;26.08;;;9.60;92.40;;;;;;5028056;28;20041;-61
2022/02/15 12:06:58;;;;;;;85.53;12.38;;;9.70;92.30;;;;;;5011189;28;20487;-63
2022/02/15 12:09:28;;;;;;;88.78;11.35;;;9.70;92.20;;;;;;5030812;28;20045;-63
2022/02/15 12:11:53;;;;;;;103.65;12.00;;;9.70;92.30;;;;;;5025322;28;20404;-60
2022/02/15 12:14:22;;;;;;;67.75;10.18;;;9.70;92.20;;;;;;5022968;28;20040;-61
2022/02/15 12:16:51;;;;;;;179.40;20.30;;;9.70;92.10;;;;;;5024250;28;21551;-60
2022/02/15 12:19:26;;;;;;;107.80;14.02;;;9.70;92.10;;;;;;5012237;28;20890;-61
2022/02/15 12:21:59;;;;;;;73.18;10.77;;;9.70;92.00;;;;;;5016860;28;20029;-62
2022/02/15 12:24:25;;;;;;;88.40;12.65;;;9.70;91.90;;;;;;5014613;28;20136;-62
2022/02/15 12:26:51;;;;;;;95.70;11.45;;;9.70;91.80;;;;;;5015322;28;20129;-62
2022/02/15 12:29:17;;;;;;;74.55;10.38;;;9.70;91.80;;;;;;5023278;28;20041;-61
2022/02/15 12:31:42;;;;;;;53.42;8.10;;;9.70;91.80;;;;;;5012791;28;20097;-61
2022/02/15 12:34:12;;;;;;;67.90;7.78;;;9.70;91.70;;;;;;5016662;28;20074;-59
2022/02/15 12:36:37;;;;;;;122.20;13.55;;;9.80;91.50;;;;;;5014302;28;20034;-61
2022/02/15 12:39:06;;;;;;;67.10;9.57;;;9.70;91.50;;;;;;4999932;28;20040;-60
2022/02/15 12:41:37;;;;;;;66.88;7.75;;;9.70;91.60;;;;;;5020849;28;20531;-61
2022/02/15 12:44:03;;;;;;;51.25;7.15;;;9.70;91.50;;;;;;5018167;28;20033;-65
2022/02/15 12:46:29;;;;;;;42.83;6.68;;;9.70;91.60;;;;;;5007751;28;20037;-64